Карточка аэропорта UHMA

Внимание!
Информация на этой странице в стадии наполнения.
Если вы не увидели какой-то информации, или заметили неточность - пожалуйста сообщите нам!
Спасибо!
Команда RU-STAFF
Название аэропортаУгольный
Название аэропорта (англ.)Ugolny
Превышение194 ft. (59.1 m.)
Координаты64°44.1', 177°44.28'
Высота перехода1600m
Эшелон переходаQFE>=755mm:FL070; QFE<755=>728:FL080; QFE<728:FL090
Коды ответчика6501-6537
Зона ОрВДМагадан РПИ (UHMM)
Данные METARUHMA 310600Z 13011G16MPS 9000 4100N BLSN FEW005 M02/M04 Q1000 R01/39//40 NOSIG RMK MID 11011G14MPS END R01/11013G16MPS QFE746/0995
Проноз погоды (TAF)UHMA 310447Z 3106/0106 12012G18MPS 5000 BLSN FEW003 BKN015 TEMPO 3106/3124 10018G25MPS 0300 SN BLSN VV003 TEMPO 0100/0106 10007G12MPS 1100 SHSN BLSN BKN010CB
NOTAMshow/hide NOTAM
AWOS   TABLE

Информация о ВПП


Диспетчерские позиции

Позывной Наименование органа УВД Частота
UHMA_APPАнадырь-Подход124.0
UHMA_TWRАнадырь-Старт124.0



Спутниковое изображение